• Join FlightAware (Why Join?)
  • Login
  • US Flag 
07:37AM EST


 

Airport Tracker/Info


-or-


 

Live Flight TrackerFlight Track Log ✈ EGF4393 ✈ 05-May-2013 ✈ KORD - KCWA

Flight Track Log - Related Links

Times and Time Zones

All times are in EDT time to prevent confusion due to time zone crossing. See the EGF4393 flight status page for this flight to view local times or setup timezone preferences in your user account.

Time Position Orientation Groundspeed Altitude Reporting Facility
EDT Latitude Longitude Course Direction KTS MPH feet Rate Location/Type
04:33PM 42.0000 -87.9333 346° North 159 183 1,500  Level Chicago TRACON
04:34PM 42.0500 -87.9167 14° North 209 241 3,500 1,350 Climbing Chicago TRACON
04:35PM 42.2590 -87.9939 350° North  Level FlightAware Approximate
04:35PM 42.1483 -87.8919 11° North 256 295 5,100  Level Chicago Center
04:36PM 42.3577 -88.0205 340° North  Level FlightAware Approximate
04:36PM 42.2194 -87.8656 15° North 265 305 7,500  Level Chicago Center
04:37PM 42.4541 -88.0575 352° North  Level FlightAware Approximate
04:37PM 42.2967 -87.8394 14° North 284 327 9,900  Level Chicago Center
04:38PM 42.5494 -88.0942 346° North  Level FlightAware Approximate
04:38PM 42.3947 -87.8056 14° North 300 345 12,900  Level Chicago Center
04:40PM 42.4753 -87.8658 331° Northwest  Level Estimated
04:41PM 42.5633 -87.7481 331° Northwest 321 369 15,000  Level Chicago Center
04:42PM 42.6542 -87.7389 North 331 381 16,000 1,016 Climbing Chicago Center
04:43PM 42.7536 -87.7553 353° North 357 411 17,100 1,113 Climbing Chicago Center
04:44PM 42.8639 -87.8408 330° Northwest 395 455 18,300 1,113 Climbing Chicago Center
04:45PM 42.9561 -87.9297 325° Northwest 405 466 19,400 1,065 Climbing Chicago Center
04:46PM 43.0544 -88.0192 326° Northwest 419 482 20,500 1,016 Climbing Chicago Center
04:47PM 43.1542 -88.1139 325° Northwest 434 499 21,500 726 Climbing Chicago Center
04:48PM 43.2567 -88.2067 327° Northwest 442 509 22,000 242 Climbing Chicago Center
04:49PM 43.3775 -88.3178 326° Northwest 451 519 22,000  Level Chicago Center
04:50PM 43.4786 -88.4125 326° Northwest 451 519 22,000  Level Chicago Center
04:51PM 43.5806 -88.5078 326° Northwest 456 525 22,000  Level Chicago Center
04:51PM 43.6317 -88.5561 326° Northwest 454 522 22,000  Level Minneapolis Center
04:52PM 43.7350 -88.6561 325° Northwest 454 522 22,000 -48 Level Minneapolis Center
04:53PM 43.8386 -88.7525 326° Northwest 451 519 21,900 -1,403 Descending Minneapolis Center
04:54PM 43.9400 -88.8931 315° West 444 511 19,100 -2,468 Descending Minneapolis Center
04:55PM 44.0211 -89.0056 315° West 415 478 16,800 -2,323 Descending Minneapolis Center
04:56PM 44.1292 -89.0975 329° Northwest 419 482 14,300 -2,177 Descending Minneapolis Center
04:58PM 44.2161 -89.1750 327° Northwest 389 448 12,300 -1,694 Descending Minneapolis Center
04:59PM 44.3086 -89.2533 329° Northwest 377 434 10,800 -1,258 Descending Minneapolis Center
05:00PM 44.3719 -89.3117 327° Northwest 312 359 9,700 -1,452 Descending Minneapolis Center
05:01PM 44.4536 -89.3811 329° Northwest 289 333 7,800 -1,597 Descending Minneapolis Center
05:02PM 44.5192 -89.4408 327° Northwest 272 313 6,400 -1,113 Descending Minneapolis Center
05:03PM 44.5692 -89.4867 327° Northwest 270 311 5,500 -1,161 Descending Minneapolis Center
05:04PM 44.6433 -89.5658 323° Northwest 262 302 4,000 -1,258 Descending Minneapolis Center
05:05PM 44.6794 -89.6469 302° West 258 297 2,900 -1,016 Descending Minneapolis Center
05:06PM 44.7297 -89.6650 346° North 183 211 1,900 -968 Descending Minneapolis Center